sensor_id;sensor_type;location;lat;lon;timestamp;temperature;humidity
2639;DHT22;1329;51.384;7.122;2022-09-13T00:01:58;20.90;65.10
2639;DHT22;1329;51.384;7.122;2022-09-13T00:04:26;20.80;65.50
2639;DHT22;1329;51.384;7.122;2022-09-13T00:06:53;20.80;65.00
2639;DHT22;1329;51.384;7.122;2022-09-13T00:09:20;20.70;66.40
2639;DHT22;1329;51.384;7.122;2022-09-13T00:11:49;20.70;67.00
2639;DHT22;1329;51.384;7.122;2022-09-13T00:14:17;20.70;61.70
2639;DHT22;1329;51.384;7.122;2022-09-13T00:16:45;20.60;67.20
2639;DHT22;1329;51.384;7.122;2022-09-13T00:19:12;20.60;67.80
2639;DHT22;1329;51.384;7.122;2022-09-13T00:21:39;20.60;67.80
2639;DHT22;1329;51.384;7.122;2022-09-13T00:24:07;20.50;68.30
2639;DHT22;1329;51.384;7.122;2022-09-13T00:26:34;20.50;66.10
2639;DHT22;1329;51.384;7.122;2022-09-13T00:29:03;20.50;68.80
2639;DHT22;1329;51.384;7.122;2022-09-13T00:31:30;20.50;65.40
2639;DHT22;1329;51.384;7.122;2022-09-13T00:33:58;20.40;70.10
2639;DHT22;1329;51.384;7.122;2022-09-13T00:36:26;20.40;70.20
2639;DHT22;1329;51.384;7.122;2022-09-13T00:38:53;20.40;71.30
2639;DHT22;1329;51.384;7.122;2022-09-13T00:41:22;20.40;72.40
2639;DHT22;1329;51.384;7.122;2022-09-13T00:43:52;20.40;68.50
2639;DHT22;1329;51.384;7.122;2022-09-13T00:46:26;20.40;68.10
2639;DHT22;1329;51.384;7.122;2022-09-13T00:49:02;20.40;63.50
2639;DHT22;1329;51.384;7.122;2022-09-13T00:51:36;20.40;67.60
2639;DHT22;1329;51.384;7.122;2022-09-13T00:54:04;20.40;72.50
2639;DHT22;1329;51.384;7.122;2022-09-13T00:56:34;20.50;74.80
2639;DHT22;1329;51.384;7.122;2022-09-13T00:59:09;20.50;69.90
2639;DHT22;1329;51.384;7.122;2022-09-13T01:01:45;20.50;67.40
2639;DHT22;1329;51.384;7.122;2022-09-13T01:04:15;20.50;68.20
2639;DHT22;1329;51.384;7.122;2022-09-13T01:06:48;20.50;73.10
2639;DHT22;1329;51.384;7.122;2022-09-13T01:09:18;20.50;72.00
2639;DHT22;1329;51.384;7.122;2022-09-13T01:11:47;20.50;75.60
2639;DHT22;1329;51.384;7.122;2022-09-13T01:14:21;20.50;71.90
2639;DHT22;1329;51.384;7.122;2022-09-13T01:16:51;20.50;72.30
2639;DHT22;1329;51.384;7.122;2022-09-13T01:19:21;20.50;71.30
2639;DHT22;1329;51.384;7.122;2022-09-13T01:22:07;20.50;75.80
2639;DHT22;1329;51.384;7.122;2022-09-13T01:28:17;20.50;62.30
2639;DHT22;1329;51.384;7.122;2022-09-13T01:31:00;20.50;64.40
2639;DHT22;1329;51.384;7.122;2022-09-13T01:33:49;20.40;66.00
2639;DHT22;1329;51.384;7.122;2022-09-13T01:36:38;20.40;62.50
2639;DHT22;1329;51.384;7.122;2022-09-13T01:39:16;20.40;62.60
2639;DHT22;1329;51.384;7.122;2022-09-13T01:42:01;20.30;68.90
2639;DHT22;1329;51.384;7.122;2022-09-13T01:44:45;20.30;62.10
2639;DHT22;1329;51.384;7.122;2022-09-13T01:47:26;20.30;64.60
2639;DHT22;1329;51.384;7.122;2022-09-13T01:50:06;20.20;67.20
2639;DHT22;1329;51.384;7.122;2022-09-13T01:52:44;20.20;67.40
2639;DHT22;1329;51.384;7.122;2022-09-13T01:55:22;20.20;66.80
2639;DHT22;1329;51.384;7.122;2022-09-13T01:58:00;20.20;68.10
2639;DHT22;1329;51.384;7.122;2022-09-13T02:00:35;20.20;70.00
2639;DHT22;1329;51.384;7.122;2022-09-13T02:03:10;20.20;70.50
2639;DHT22;1329;51.384;7.122;2022-09-13T02:05:44;20.10;69.90
2639;DHT22;1329;51.384;7.122;2022-09-13T02:08:17;20.10;71.30
2639;DHT22;1329;51.384;7.122;2022-09-13T02:10:48;20.10;71.40
2639;DHT22;1329;51.384;7.122;2022-09-13T02:13:21;20.20;76.00
2639;DHT22;1329;51.384;7.122;2022-09-13T02:15:57;20.10;73.80
2639;DHT22;1329;51.384;7.122;2022-09-13T02:18:31;20.20;72.50
2639;DHT22;1329;51.384;7.122;2022-09-13T02:21:08;20.20;69.70
2639;DHT22;1329;51.384;7.122;2022-09-13T02:23:40;20.20;67.20
2639;DHT22;1329;51.384;7.122;2022-09-13T02:26:12;20.30;72.00
2639;DHT22;1329;51.384;7.122;2022-09-13T02:28:44;20.20;72.90
2639;DHT22;1329;51.384;7.122;2022-09-13T02:31:16;20.30;74.00
2639;DHT22;1329;51.384;7.122;2022-09-13T02:33:53;20.30;72.20
2639;DHT22;1329;51.384;7.122;2022-09-13T02:36:23;20.30;68.20
2639;DHT22;1329;51.384;7.122;2022-09-13T02:38:59;20.30;73.70
2639;DHT22;1329;51.384;7.122;2022-09-13T02:41:33;20.30;67.60
2639;DHT22;1329;51.384;7.122;2022-09-13T02:44:08;20.30;70.10
2639;DHT22;1329;51.384;7.122;2022-09-13T02:46:54;20.30;68.40
2639;DHT22;1329;51.384;7.122;2022-09-13T02:49:32;20.30;64.10
2639;DHT22;1329;51.384;7.122;2022-09-13T02:52:11;20.20;68.90
2639;DHT22;1329;51.384;7.122;2022-09-13T02:54:50;20.30;66.90
2639;DHT22;1329;51.384;7.122;2022-09-13T02:57:21;20.30;66.90
2639;DHT22;1329;51.384;7.122;2022-09-13T02:59:54;20.30;71.50
2639;DHT22;1329;51.384;7.122;2022-09-13T03:02:24;20.30;76.70
2639;DHT22;1329;51.384;7.122;2022-09-13T03:04:55;20.40;73.00
2639;DHT22;1329;51.384;7.122;2022-09-13T03:07:23;20.30;71.90
2639;DHT22;1329;51.384;7.122;2022-09-13T03:09:53;20.40;76.20
2639;DHT22;1329;51.384;7.122;2022-09-13T03:12:33;20.30;70.90
2639;DHT22;1329;51.384;7.122;2022-09-13T03:15:16;20.40;63.90
2639;DHT22;1329;51.384;7.122;2022-09-13T03:17:54;20.40;68.20
2639;DHT22;1329;51.384;7.122;2022-09-13T03:20:38;20.50;69.00
2639;DHT22;1329;51.384;7.122;2022-09-13T03:23:31;20.50;65.50
2639;DHT22;1329;51.384;7.122;2022-09-13T03:26:22;20.50;62.40
2639;DHT22;1329;51.384;7.122;2022-09-13T03:29:08;20.50;64.30
2639;DHT22;1329;51.384;7.122;2022-09-13T03:31:46;20.50;66.70
2639;DHT22;1329;51.384;7.122;2022-09-13T03:34:22;20.50;71.30
2639;DHT22;1329;51.384;7.122;2022-09-13T03:37:02;20.50;72.90
2639;DHT22;1329;51.384;7.122;2022-09-13T03:39:36;20.50;71.90
2639;DHT22;1329;51.384;7.122;2022-09-13T03:42:12;20.40;75.80
2639;DHT22;1329;51.384;7.122;2022-09-13T03:44:45;20.30;75.10
2639;DHT22;1329;51.384;7.122;2022-09-13T03:47:15;20.30;78.30
2639;DHT22;1329;51.384;7.122;2022-09-13T03:49:43;20.20;81.50
2639;DHT22;1329;51.384;7.122;2022-09-13T03:52:12;20.10;83.50
2639;DHT22;1329;51.384;7.122;2022-09-13T03:54:39;20.00;85.30
2639;DHT22;1329;51.384;7.122;2022-09-13T03:57:11;19.90;88.40
2639;DHT22;1329;51.384;7.122;2022-09-13T03:59:44;19.80;88.90
2639;DHT22;1329;51.384;7.122;2022-09-13T04:02:13;19.70;90.50
2639;DHT22;1329;51.384;7.122;2022-09-13T04:04:43;19.60;91.90
2639;DHT22;1329;51.384;7.122;2022-09-13T04:07:13;19.60;92.30
2639;DHT22;1329;51.384;7.122;2022-09-13T04:09:41;19.50;92.60
2639;DHT22;1329;51.384;7.122;2022-09-13T04:12:09;19.50;93.70
2639;DHT22;1329;51.384;7.122;2022-09-13T04:14:36;19.50;94.40
2639;DHT22;1329;51.384;7.122;2022-09-13T04:17:03;19.40;95.00
2639;DHT22;1329;51.384;7.122;2022-09-13T04:19:31;19.40;95.30
2639;DHT22;1329;51.384;7.122;2022-09-13T04:21:59;19.40;95.80
2639;DHT22;1329;51.384;7.122;2022-09-13T04:24:28;19.40;96.10
2639;DHT22;1329;51.384;7.122;2022-09-13T04:26:56;19.40;96.10
2639;DHT22;1329;51.384;7.122;2022-09-13T04:29:24;19.30;97.50
2639;DHT22;1329;51.384;7.122;2022-09-13T04:31:53;19.30;97.70
2639;DHT22;1329;51.384;7.122;2022-09-13T04:34:21;19.20;97.70
2639;DHT22;1329;51.384;7.122;2022-09-13T04:36:49;19.30;98.10
2639;DHT22;1329;51.384;7.122;2022-09-13T04:39:17;19.30;98.20
2639;DHT22;1329;51.384;7.122;2022-09-13T04:41:47;19.30;98.50
2639;DHT22;1329;51.384;7.122;2022-09-13T04:44:16;19.30;98.30
2639;DHT22;1329;51.384;7.122;2022-09-13T04:46:46;19.30;98.80
2639;DHT22;1329;51.384;7.122;2022-09-13T04:49:14;19.30;98.60
2639;DHT22;1329;51.384;7.122;2022-09-13T04:51:45;19.30;98.80
2639;DHT22;1329;51.384;7.122;2022-09-13T04:54:13;19.30;98.90
2639;DHT22;1329;51.384;7.122;2022-09-13T04:56:40;19.30;98.50
2639;DHT22;1329;51.384;7.122;2022-09-13T04:59:10;19.30;98.70
2639;DHT22;1329;51.384;7.122;2022-09-13T05:01:40;19.30;98.30
2639;DHT22;1329;51.384;7.122;2022-09-13T05:04:09;19.30;97.60
2639;DHT22;1329;51.384;7.122;2022-09-13T05:06:36;19.20;97.90
2639;DHT22;1329;51.384;7.122;2022-09-13T05:09:04;19.30;98.40
2639;DHT22;1329;51.384;7.122;2022-09-13T05:11:38;19.30;98.50
2639;DHT22;1329;51.384;7.122;2022-09-13T05:14:08;19.30;98.80
2639;DHT22;1329;51.384;7.122;2022-09-13T05:16:39;19.30;98.90
2639;DHT22;1329;51.384;7.122;2022-09-13T05:19:08;19.30;99.10
2639;DHT22;1329;51.384;7.122;2022-09-13T05:21:47;19.30;99.30
2639;DHT22;1329;51.384;7.122;2022-09-13T05:24:15;19.30;98.00
2639;DHT22;1329;51.384;7.122;2022-09-13T05:26:43;19.30;99.90
2639;DHT22;1329;51.384;7.122;2022-09-13T05:29:14;19.30;99.90
2639;DHT22;1329;51.384;7.122;2022-09-13T05:31:42;19.30;99.40
2639;DHT22;1329;51.384;7.122;2022-09-13T05:34:13;19.30;99.50
2639;DHT22;1329;51.384;7.122;2022-09-13T05:36:42;19.40;99.80
2639;DHT22;1329;51.384;7.122;2022-09-13T05:39:13;19.40;99.90
2639;DHT22;1329;51.384;7.122;2022-09-13T05:41:42;19.40;99.60
2639;DHT22;1329;51.384;7.122;2022-09-13T05:44:14;19.40;99.90
2639;DHT22;1329;51.384;7.122;2022-09-13T05:46:46;19.40;99.90
2639;DHT22;1329;51.384;7.122;2022-09-13T05:49:14;19.40;99.10
2639;DHT22;1329;51.384;7.122;2022-09-13T05:51:41;19.50;99.90
2639;DHT22;1329;51.384;7.122;2022-09-13T05:54:11;19.50;99.90
2639;DHT22;1329;51.384;7.122;2022-09-13T05:56:39;19.50;99.90
2639;DHT22;1329;51.384;7.122;2022-09-13T05:59:10;19.50;99.90
2639;DHT22;1329;51.384;7.122;2022-09-13T06:01:40;19.50;99.90
2639;DHT22;1329;51.384;7.122;2022-09-13T06:04:07;19.50;99.90
2639;DHT22;1329;51.384;7.122;2022-09-13T06:06:37;19.60;99.90
2639;DHT22;1329;51.384;7.122;2022-09-13T06:09:05;19.60;99.90
2639;DHT22;1329;51.384;7.122;2022-09-13T06:11:36;19.60;99.90
2639;DHT22;1329;51.384;7.122;2022-09-13T06:14:04;19.60;99.90
2639;DHT22;1329;51.384;7.122;2022-09-13T06:16:33;19.70;99.90
2639;DHT22;1329;51.384;7.122;2022-09-13T06:19:02;19.60;99.90
2639;DHT22;1329;51.384;7.122;2022-09-13T06:21:30;19.70;99.90
2639;DHT22;1329;51.384;7.122;2022-09-13T06:23:58;19.70;99.90
2639;DHT22;1329;51.384;7.122;2022-09-13T06:26:26;19.80;99.90
2639;DHT22;1329;51.384;7.122;2022-09-13T06:28:55;19.80;99.90
2639;DHT22;1329;51.384;7.122;2022-09-13T06:31:24;19.80;99.90
2639;DHT22;1329;51.384;7.122;2022-09-13T06:33:58;19.80;99.90
2639;DHT22;1329;51.384;7.122;2022-09-13T06:36:27;19.90;99.90
2639;DHT22;1329;51.384;7.122;2022-09-13T06:38:57;20.00;99.90
2639;DHT22;1329;51.384;7.122;2022-09-13T06:41:27;20.00;99.90
2639;DHT22;1329;51.384;7.122;2022-09-13T06:43:55;20.00;99.90
2639;DHT22;1329;51.384;7.122;2022-09-13T06:46:25;20.10;99.90
2639;DHT22;1329;51.384;7.122;2022-09-13T06:48:54;20.10;99.90
2639;DHT22;1329;51.384;7.122;2022-09-13T06:51:27;20.20;99.90
2639;DHT22;1329;51.384;7.122;2022-09-13T06:53:54;20.20;99.90
2639;DHT22;1329;51.384;7.122;2022-09-13T06:56:26;20.30;99.90
2639;DHT22;1329;51.384;7.122;2022-09-13T06:58:56;20.30;99.90
2639;DHT22;1329;51.384;7.122;2022-09-13T07:01:29;20.40;99.90
2639;DHT22;1329;51.384;7.122;2022-09-13T07:04:01;20.50;99.90
2639;DHT22;1329;51.384;7.122;2022-09-13T07:06:30;20.50;99.90
2639;DHT22;1329;51.384;7.122;2022-09-13T07:09:03;20.50;99.90
2639;DHT22;1329;51.384;7.122;2022-09-13T07:11:35;20.70;99.90
2639;DHT22;1329;51.384;7.122;2022-09-13T07:14:04;20.70;99.90
2639;DHT22;1329;51.384;7.122;2022-09-13T07:16:33;20.80;99.90
2639;DHT22;1329;51.384;7.122;2022-09-13T07:19:12;20.80;99.60
2639;DHT22;1329;51.384;7.122;2022-09-13T07:21:40;20.90;96.70
2639;DHT22;1329;51.384;7.122;2022-09-13T07:24:09;20.90;99.50
2639;DHT22;1329;51.384;7.122;2022-09-13T07:26:37;21.00;99.60
2639;DHT22;1329;51.384;7.122;2022-09-13T07:29:07;21.00;99.50
2639;DHT22;1329;51.384;7.122;2022-09-13T07:31:40;21.10;97.60
2639;DHT22;1329;51.384;7.122;2022-09-13T07:34:14;21.20;98.10
2639;DHT22;1329;51.384;7.122;2022-09-13T07:36:44;21.20;96.10
2639;DHT22;1329;51.384;7.122;2022-09-13T07:39:13;21.20;97.80
2639;DHT22;1329;51.384;7.122;2022-09-13T07:41:45;21.20;98.50
2639;DHT22;1329;51.384;7.122;2022-09-13T07:44:14;21.30;98.50
2639;DHT22;1329;51.384;7.122;2022-09-13T07:46:44;21.40;98.40
2639;DHT22;1329;51.384;7.122;2022-09-13T07:49:17;21.40;98.40
2639;DHT22;1329;51.384;7.122;2022-09-13T07:51:48;21.40;96.70
2639;DHT22;1329;51.384;7.122;2022-09-13T07:54:18;21.50;98.40
2639;DHT22;1329;51.384;7.122;2022-09-13T07:56:46;21.60;98.40
2639;DHT22;1329;51.384;7.122;2022-09-13T07:59:15;21.60;98.30
2639;DHT22;1329;51.384;7.122;2022-09-13T08:01:45;21.70;97.80
2639;DHT22;1329;51.384;7.122;2022-09-13T08:04:23;21.70;98.10
2639;DHT22;1329;51.384;7.122;2022-09-13T08:06:54;21.80;96.40
2639;DHT22;1329;51.384;7.122;2022-09-13T08:09:22;21.90;98.90
2639;DHT22;1329;51.384;7.122;2022-09-13T08:11:50;21.90;98.90
2639;DHT22;1329;51.384;7.122;2022-09-13T08:14:21;22.00;98.40
2639;DHT22;1329;51.384;7.122;2022-09-13T08:16:54;22.00;97.10
2639;DHT22;1329;51.384;7.122;2022-09-13T08:19:28;22.10;94.90
2639;DHT22;1329;51.384;7.122;2022-09-13T08:22:02;22.20;95.60
2639;DHT22;1329;51.384;7.122;2022-09-13T08:24:30;22.20;96.30
2639;DHT22;1329;51.384;7.122;2022-09-13T08:26:59;22.30;95.30
2639;DHT22;1329;51.384;7.122;2022-09-13T08:29:29;22.40;94.60
2639;DHT22;1329;51.384;7.122;2022-09-13T08:32:00;22.40;94.50
2639;DHT22;1329;51.384;7.122;2022-09-13T08:34:45;22.50;93.60
2639;DHT22;1329;51.384;7.122;2022-09-13T08:37:19;22.50;84.90
2639;DHT22;1329;51.384;7.122;2022-09-13T08:39:50;22.60;92.80
2639;DHT22;1329;51.384;7.122;2022-09-13T08:42:28;22.50;91.70
2639;DHT22;1329;51.384;7.122;2022-09-13T08:45:03;22.60;81.50
2639;DHT22;1329;51.384;7.122;2022-09-13T08:47:38;22.60;89.20
2639;DHT22;1329;51.384;7.122;2022-09-13T08:50:16;22.60;80.60
2639;DHT22;1329;51.384;7.122;2022-09-13T08:53:11;22.60;76.30
2639;DHT22;1329;51.384;7.122;2022-09-13T08:55:54;22.70;73.50
2639;DHT22;1329;51.384;7.122;2022-09-13T08:58:52;22.70;75.30
2639;DHT22;1329;51.384;7.122;2022-09-13T09:01:42;22.70;70.00
2639;DHT22;1329;51.384;7.122;2022-09-13T09:04:32;22.70;71.90
2639;DHT22;1329;51.384;7.122;2022-09-13T09:07:12;22.80;69.50
2639;DHT22;1329;51.384;7.122;2022-09-13T09:09:57;22.80;76.30
2639;DHT22;1329;51.384;7.122;2022-09-13T09:12:35;22.80;75.00
2639;DHT22;1329;51.384;7.122;2022-09-13T09:15:13;22.80;77.60
2639;DHT22;1329;51.384;7.122;2022-09-13T09:17:48;22.80;76.60
2639;DHT22;1329;51.384;7.122;2022-09-13T09:20:32;22.90;78.50
2639;DHT22;1329;51.384;7.122;2022-09-13T09:23:12;22.90;72.90
2639;DHT22;1329;51.384;7.122;2022-09-13T09:25:42;22.90;72.90
2639;DHT22;1329;51.384;7.122;2022-09-13T09:28:14;22.90;85.80
2639;DHT22;1329;51.384;7.122;2022-09-13T09:30:54;23.00;81.40
2639;DHT22;1329;51.384;7.122;2022-09-13T09:33:44;23.00;74.70
2639;DHT22;1329;51.384;7.122;2022-09-13T09:36:25;23.00;71.60
2639;DHT22;1329;51.384;7.122;2022-09-13T09:39:03;23.00;75.40
2639;DHT22;1329;51.384;7.122;2022-09-13T09:41:32;23.10;72.10
2639;DHT22;1329;51.384;7.122;2022-09-13T09:44:15;23.10;82.90
2639;DHT22;1329;51.384;7.122;2022-09-13T09:46:58;23.20;73.70
2639;DHT22;1329;51.384;7.122;2022-09-13T09:49:34;23.30;75.90
2639;DHT22;1329;51.384;7.122;2022-09-13T09:52:30;23.30;77.90
2639;DHT22;1329;51.384;7.122;2022-09-13T09:55:10;23.40;74.30
2639;DHT22;1329;51.384;7.122;2022-09-13T09:57:56;23.50;70.00
2639;DHT22;1329;51.384;7.122;2022-09-13T10:00:28;23.50;70.50
2639;DHT22;1329;51.384;7.122;2022-09-13T10:03:23;23.60;76.50
2639;DHT22;1329;51.384;7.122;2022-09-13T10:06:07;23.60;64.50
2639;DHT22;1329;51.384;7.122;2022-09-13T10:08:52;23.70;66.30
2639;DHT22;1329;51.384;7.122;2022-09-13T10:11:41;23.80;64.80
2639;DHT22;1329;51.384;7.122;2022-09-13T10:14:35;23.80;59.80
2639;DHT22;1329;51.384;7.122;2022-09-13T10:17:19;23.90;59.40
2639;DHT22;1329;51.384;7.122;2022-09-13T10:20:18;23.90;61.20
2639;DHT22;1329;51.384;7.122;2022-09-13T10:26:06;24.10;60.80
2639;DHT22;1329;51.384;7.122;2022-09-13T10:28:55;24.10;55.90
2639;DHT22;1329;51.384;7.122;2022-09-13T10:31:37;24.10;56.80
2639;DHT22;1329;51.384;7.122;2022-09-13T10:34:15;24.10;67.60
2639;DHT22;1329;51.384;7.122;2022-09-13T10:36:52;24.20;59.30
2639;DHT22;1329;51.384;7.122;2022-09-13T10:39:24;24.20;57.50
2639;DHT22;1329;51.384;7.122;2022-09-13T10:41:59;24.20;64.80
2639;DHT22;1329;51.384;7.122;2022-09-13T10:44:42;24.30;60.90
2639;DHT22;1329;51.384;7.122;2022-09-13T10:47:26;24.30;53.70
2639;DHT22;1329;51.384;7.122;2022-09-13T10:50:23;24.30;56.80
2639;DHT22;1329;51.384;7.122;2022-09-13T10:53:07;24.30;53.80
2639;DHT22;1329;51.384;7.122;2022-09-13T10:56:19;24.30;69.10
2639;DHT22;1329;51.384;7.122;2022-09-13T10:59:20;24.40;56.10
2639;DHT22;1329;51.384;7.122;2022-09-13T11:02:24;24.40;53.20
2639;DHT22;1329;51.384;7.122;2022-09-13T11:05:22;24.50;51.70
2639;DHT22;1329;51.384;7.122;2022-09-13T11:08:09;24.50;50.90
2639;DHT22;1329;51.384;7.122;2022-09-13T11:11:17;24.60;49.00
2639;DHT22;1329;51.384;7.122;2022-09-13T11:14:06;24.60;55.00
2639;DHT22;1329;51.384;7.122;2022-09-13T11:16:55;24.70;50.00
2639;DHT22;1329;51.384;7.122;2022-09-13T11:26:43;24.80;45.80
2639;DHT22;1329;51.384;7.122;2022-09-13T11:29:51;24.80;48.20
2639;DHT22;1329;51.384;7.122;2022-09-13T11:33:02;24.80;42.50
2639;DHT22;1329;51.384;7.122;2022-09-13T11:36:31;24.80;41.60
2639;DHT22;1329;51.384;7.122;2022-09-13T11:39:35;24.80;42.00
2639;DHT22;1329;51.384;7.122;2022-09-13T11:42:28;24.90;44.20
2639;DHT22;1329;51.384;7.122;2022-09-13T11:45:34;24.80;46.20
2639;DHT22;1329;51.384;7.122;2022-09-13T11:48:26;24.90;44.70
2639;DHT22;1329;51.384;7.122;2022-09-13T11:51:20;24.90;43.00
2639;DHT22;1329;51.384;7.122;2022-09-13T11:57:30;24.90;40.00
2639;DHT22;1329;51.384;7.122;2022-09-13T12:00:22;25.00;43.50
2639;DHT22;1329;51.384;7.122;2022-09-13T12:03:26;25.00;43.50
2639;DHT22;1329;51.384;7.122;2022-09-13T12:06:11;25.00;37.50
2639;DHT22;1329;51.384;7.122;2022-09-13T12:09:19;25.00;44.20
2639;DHT22;1329;51.384;7.122;2022-09-13T12:12:10;25.10;37.20
2639;DHT22;1329;51.384;7.122;2022-09-13T12:14:59;25.10;45.80
2639;DHT22;1329;51.384;7.122;2022-09-13T12:17:47;25.20;47.20
2639;DHT22;1329;51.384;7.122;2022-09-13T12:20:42;25.30;45.60
2639;DHT22;1329;51.384;7.122;2022-09-13T12:23:36;25.40;35.80
2639;DHT22;1329;51.384;7.122;2022-09-13T12:26:19;25.50;46.40
2639;DHT22;1329;51.384;7.122;2022-09-13T12:28:57;25.60;37.10
2639;DHT22;1329;51.384;7.122;2022-09-13T12:31:33;25.60;35.60
2639;DHT22;1329;51.384;7.122;2022-09-13T12:34:06;25.70;36.20
2639;DHT22;1329;51.384;7.122;2022-09-13T12:40:38;25.80;24.10
2639;DHT22;1329;51.384;7.122;2022-09-13T12:43:29;25.80;24.70
2639;DHT22;1329;51.384;7.122;2022-09-13T12:46:52;25.80;26.10
2639;DHT22;1329;51.384;7.122;2022-09-13T12:50:02;25.90;24.70
2639;DHT22;1329;51.384;7.122;2022-09-13T12:52:48;26.00;26.00
2639;DHT22;1329;51.384;7.122;2022-09-13T12:55:52;26.00;27.60
2639;DHT22;1329;51.384;7.122;2022-09-13T13:01:50;26.10;25.20
2639;DHT22;1329;51.384;7.122;2022-09-13T13:04:35;26.20;23.40
2639;DHT22;1329;51.384;7.122;2022-09-13T13:07:19;26.30;25.60
2639;DHT22;1329;51.384;7.122;2022-09-13T13:09:53;26.30;23.50
2639;DHT22;1329;51.384;7.122;2022-09-13T13:12:42;26.40;23.80
2639;DHT22;1329;51.384;7.122;2022-09-13T13:15:54;26.50;22.30
2639;DHT22;1329;51.384;7.122;2022-09-13T13:18:30;26.60;22.30
2639;DHT22;1329;51.384;7.122;2022-09-13T13:21:37;26.60;28.00
2639;DHT22;1329;51.384;7.122;2022-09-13T13:24:49;26.70;23.00
2639;DHT22;1329;51.384;7.122;2022-09-13T13:27:36;26.80;18.60
2639;DHT22;1329;51.384;7.122;2022-09-13T13:30:51;26.80;18.10
2639;DHT22;1329;51.384;7.122;2022-09-13T13:33:41;26.80;19.70
2639;DHT22;1329;51.384;7.122;2022-09-13T13:36:23;26.70;20.90
2639;DHT22;1329;51.384;7.122;2022-09-13T13:39:00;26.60;17.30
2639;DHT22;1329;51.384;7.122;2022-09-13T13:41:57;26.60;27.40
2639;DHT22;1329;51.384;7.122;2022-09-13T13:45:12;26.60;17.80
2639;DHT22;1329;51.384;7.122;2022-09-13T13:48:11;26.60;20.60
2639;DHT22;1329;51.384;7.122;2022-09-13T13:51:21;26.70;20.60
2639;DHT22;1329;51.384;7.122;2022-09-13T13:57:21;27.00;20.20
2639;DHT22;1329;51.384;7.122;2022-09-13T13:59:54;27.10;21.60
2639;DHT22;1329;51.384;7.122;2022-09-13T14:02:30;27.10;17.80
2639;DHT22;1329;51.384;7.122;2022-09-13T14:05:13;27.10;19.80
2639;DHT22;1329;51.384;7.122;2022-09-13T14:08:14;27.20;17.10
2639;DHT22;1329;51.384;7.122;2022-09-13T14:11:22;27.40;14.30
2639;DHT22;1329;51.384;7.122;2022-09-13T14:14:14;27.40;18.60
2639;DHT22;1329;51.384;7.122;2022-09-13T14:17:12;27.50;14.00
2639;DHT22;1329;51.384;7.122;2022-09-13T14:20:23;27.60;11.90
2639;DHT22;1329;51.384;7.122;2022-09-13T14:26:03;27.50;14.50
2639;DHT22;1329;51.384;7.122;2022-09-13T14:28:40;27.50;12.70
2639;DHT22;1329;51.384;7.122;2022-09-13T14:31:18;27.40;11.60
2639;DHT22;1329;51.384;7.122;2022-09-13T14:33:54;27.40;8.70
2639;DHT22;1329;51.384;7.122;2022-09-13T14:36:35;27.30;14.60
2639;DHT22;1329;51.384;7.122;2022-09-13T14:39:09;27.30;14.20
2639;DHT22;1329;51.384;7.122;2022-09-13T14:41:41;27.20;14.30
2639;DHT22;1329;51.384;7.122;2022-09-13T14:44:23;27.20;23.60
2639;DHT22;1329;51.384;7.122;2022-09-13T14:47:02;27.20;14.60
2639;DHT22;1329;51.384;7.122;2022-09-13T14:49:45;27.20;12.20
2639;DHT22;1329;51.384;7.122;2022-09-13T14:55:21;27.30;9.10
2639;DHT22;1329;51.384;7.122;2022-09-13T14:58:06;27.30;9.30
2639;DHT22;1329;51.384;7.122;2022-09-13T15:00:53;27.40;13.30
2639;DHT22;1329;51.384;7.122;2022-09-13T15:03:43;27.40;8.50
2639;DHT22;1329;51.384;7.122;2022-09-13T15:06:24;27.50;10.90
2639;DHT22;1329;51.384;7.122;2022-09-13T15:09:25;27.50;7.20
2639;DHT22;1329;51.384;7.122;2022-09-13T15:12:17;27.50;7.30
2639;DHT22;1329;51.384;7.122;2022-09-13T15:15:23;27.40;5.00
2639;DHT22;1329;51.384;7.122;2022-09-13T15:18:20;27.40;6.30
2639;DHT22;1329;51.384;7.122;2022-09-13T15:21:16;27.30;12.10
2639;DHT22;1329;51.384;7.122;2022-09-13T15:23:52;27.20;4.70
2639;DHT22;1329;51.384;7.122;2022-09-13T15:26:27;27.10;6.50
2639;DHT22;1329;51.384;7.122;2022-09-13T15:29:03;27.00;12.20
2639;DHT22;1329;51.384;7.122;2022-09-13T15:31:32;26.90;10.00
2639;DHT22;1329;51.384;7.122;2022-09-13T15:34:19;26.80;12.00
2639;DHT22;1329;51.384;7.122;2022-09-13T15:37:11;26.70;3.70
2639;DHT22;1329;51.384;7.122;2022-09-13T15:40:15;26.70;3.20
2639;DHT22;1329;51.384;7.122;2022-09-13T15:42:56;26.50;2.50
2639;DHT22;1329;51.384;7.122;2022-09-13T15:45:28;26.40;3.00
2639;DHT22;1329;51.384;7.122;2022-09-13T15:48:01;26.30;8.20
2639;DHT22;1329;51.384;7.122;2022-09-13T15:50:32;26.30;13.20
2639;DHT22;1329;51.384;7.122;2022-09-13T15:53:09;26.20;12.60
2639;DHT22;1329;51.384;7.122;2022-09-13T15:55:44;26.20;6.10
2639;DHT22;1329;51.384;7.122;2022-09-13T15:58:12;26.10;15.30
2639;DHT22;1329;51.384;7.122;2022-09-13T16:00:45;26.00;14.90
2639;DHT22;1329;51.384;7.122;2022-09-13T16:03:13;26.00;11.40
2639;DHT22;1329;51.384;7.122;2022-09-13T16:05:46;25.90;16.40
2639;DHT22;1329;51.384;7.122;2022-09-13T16:08:14;25.90;10.10
2639;DHT22;1329;51.384;7.122;2022-09-13T16:10:53;25.90;15.50
2639;DHT22;1329;51.384;7.122;2022-09-13T16:13:37;25.80;8.40
2639;DHT22;1329;51.384;7.122;2022-09-13T16:16:13;25.80;15.00
2639;DHT22;1329;51.384;7.122;2022-09-13T16:18:41;25.70;10.20
2639;DHT22;1329;51.384;7.122;2022-09-13T16:21:12;25.70;18.20
2639;DHT22;1329;51.384;7.122;2022-09-13T16:23:42;25.70;21.00
2639;DHT22;1329;51.384;7.122;2022-09-13T16:26:14;25.70;21.00
2639;DHT22;1329;51.384;7.122;2022-09-13T16:28:42;25.70;22.10
2639;DHT22;1329;51.384;7.122;2022-09-13T16:31:15;25.60;22.80
2639;DHT22;1329;51.384;7.122;2022-09-13T16:33:47;25.60;21.20
2639;DHT22;1329;51.384;7.122;2022-09-13T16:36:20;25.60;25.00
2639;DHT22;1329;51.384;7.122;2022-09-13T16:38:48;25.60;21.00
2639;DHT22;1329;51.384;7.122;2022-09-13T16:41:15;25.50;25.80
2639;DHT22;1329;51.384;7.122;2022-09-13T16:43:47;25.50;27.10
2639;DHT22;1329;51.384;7.122;2022-09-13T16:46:19;25.50;23.80
2639;DHT22;1329;51.384;7.122;2022-09-13T16:48:52;25.40;25.50
2639;DHT22;1329;51.384;7.122;2022-09-13T16:51:27;25.40;25.50
2639;DHT22;1329;51.384;7.122;2022-09-13T16:53:56;25.40;30.30
2639;DHT22;1329;51.384;7.122;2022-09-13T16:56:39;25.30;29.50
2639;DHT22;1329;51.384;7.122;2022-09-13T16:59:15;25.20;31.70
2639;DHT22;1329;51.384;7.122;2022-09-13T17:01:47;25.20;27.50
2639;DHT22;1329;51.384;7.122;2022-09-13T17:04:17;25.20;29.70
2639;DHT22;1329;51.384;7.122;2022-09-13T17:06:52;25.20;34.80
2639;DHT22;1329;51.384;7.122;2022-09-13T17:09:25;25.10;30.80
2639;DHT22;1329;51.384;7.122;2022-09-13T17:12:06;25.10;35.60
2639;DHT22;1329;51.384;7.122;2022-09-13T17:14:44;25.10;30.70
2639;DHT22;1329;51.384;7.122;2022-09-13T17:17:29;25.10;35.20
2639;DHT22;1329;51.384;7.122;2022-09-13T17:20:10;25.00;34.30
2639;DHT22;1329;51.384;7.122;2022-09-13T17:22:46;25.00;32.10
2639;DHT22;1329;51.384;7.122;2022-09-13T17:25:23;25.00;34.40
2639;DHT22;1329;51.384;7.122;2022-09-13T17:27:57;24.90;39.10
2639;DHT22;1329;51.384;7.122;2022-09-13T17:30:33;24.90;39.40
2639;DHT22;1329;51.384;7.122;2022-09-13T17:33:12;24.90;35.90
2639;DHT22;1329;51.384;7.122;2022-09-13T17:35:48;24.80;37.90
2639;DHT22;1329;51.384;7.122;2022-09-13T17:38:33;24.80;41.70
2639;DHT22;1329;51.384;7.122;2022-09-13T17:41:12;24.80;37.00
2639;DHT22;1329;51.384;7.122;2022-09-13T17:43:41;24.70;41.50
2639;DHT22;1329;51.384;7.122;2022-09-13T17:46:11;24.70;42.90